Time;durP1;ratioP1;P1;durP2;ratioP2;P2;SDS_P1;SDS_P2;PMS_P1;PMS_P2;Temp;Humidity;BMP_temperature;BMP_pressure;BME280_temperature;BME280_humidity;BME280_pressure;Samples;Min_cycle;Max_cycle;Signal;HPM_P1;HPM_P2
2020/12/04 00:00:08;;;;;;;41.45;22.13;;;;;;;;;;5035752;28;20060;-86
2020/12/04 00:02:34;;;;;;;40.28;21.88;;;;;;;;;;5040363;28;20405;-85
2020/12/04 00:05:01;;;;;;;38.70;22.15;;;;;;;;;;5026339;28;20045;-85
2020/12/04 00:07:27;;;;;;;40.17;21.80;;;;;;;;;;5025054;28;21502;-86
2020/12/04 00:09:53;;;;;;;38.92;21.58;;;;;;;;;;5015960;28;20052;-86
2020/12/04 00:12:19;;;;;;;34.72;20.50;;;;;;;;;;5021762;28;20049;-85
2020/12/04 00:14:45;;;;;;;36.53;19.98;;;;;;;;;;5035588;28;20071;-86
2020/12/04 00:17:11;;;;;;;41.03;22.73;;;;;;;;;;5039795;28;20645;-85
2020/12/04 00:19:37;;;;;;;38.05;22.65;;;;;;;;;;5024613;28;20044;-85
2020/12/04 00:22:04;;;;;;;41.67;22.38;;;;;;;;;;5024148;28;20049;-85
2020/12/04 00:24:30;;;;;;;42.55;23.65;;;;;;;;;;5041830;28;20045;-85
2020/12/04 00:26:57;;;;;;;45.72;24.38;;;;;;;;;;5034034;28;20064;-86
2020/12/04 00:29:23;;;;;;;40.55;21.33;;;;;;;;;;5039709;28;20049;-85
2020/12/04 00:31:49;;;;;;;40.88;21.77;;;;;;;;;;5022868;28;20111;-85
2020/12/04 00:34:15;;;;;;;41.30;22.30;;;;;;;;;;5006591;28;20038;-85
2020/12/04 00:36:44;;;;;;;45.45;22.83;;;;;;;;;;5023745;28;20041;-86
2020/12/04 00:39:11;;;;;;;41.83;23.02;;;;;;;;;;5020458;28;20049;-85
2020/12/04 00:41:37;;;;;;;37.92;21.05;;;;;;;;;;5041449;28;20041;-86
2020/12/04 00:44:03;;;;;;;42.58;23.60;;;;;;;;;;5022641;28;20412;-86
2020/12/04 00:46:29;;;;;;;37.55;21.25;;;;;;;;;;5022421;28;20049;-86
2020/12/04 00:48:55;;;;;;;41.35;21.15;;;;;;;;;;5042113;28;20056;-86
2020/12/04 00:51:21;;;;;;;39.70;21.73;;;;;;;;;;5022234;28;20046;-86
2020/12/04 00:53:47;;;;;;;37.28;21.48;;;;;;;;;;5008570;28;20060;-86
2020/12/04 00:56:16;;;;;;;40.55;21.25;;;;;;;;;;5043931;28;20057;-86
2020/12/04 00:58:42;;;;;;;37.95;21.13;;;;;;;;;;5031437;28;20055;-86
2020/12/04 01:01:08;;;;;;;36.67;19.60;;;;;;;;;;5015267;28;20497;-86
2020/12/04 01:03:34;;;;;;;39.30;21.58;;;;;;;;;;5018632;28;20140;-86
2020/12/04 01:06:00;;;;;;;43.58;23.10;;;;;;;;;;5024780;28;20044;-86
2020/12/04 01:08:27;;;;;;;38.38;21.23;;;;;;;;;;5019163;28;20581;-86
2020/12/04 01:10:53;;;;;;;39.08;21.30;;;;;;;;;;5021552;28;20049;-87
2020/12/04 01:13:20;;;;;;;39.78;21.73;;;;;;;;;;5040328;28;20107;-87
2020/12/04 01:15:46;;;;;;;35.33;19.70;;;;;;;;;;5017677;28;20057;-86
2020/12/04 01:18:11;;;;;;;37.50;20.30;;;;;;;;;;5015716;28;20041;-86
2020/12/04 01:20:37;;;;;;;42.88;22.52;;;;;;;;;;5033046;28;20045;-86
2020/12/04 01:23:03;;;;;;;37.92;21.33;;;;;;;;;;5016261;28;20057;-86
2020/12/04 01:25:29;;;;;;;43.13;22.40;;;;;;;;;;5015787;28;20045;-86
2020/12/04 01:27:55;;;;;;;40.33;22.27;;;;;;;;;;5032889;28;20950;-86
2020/12/04 01:30:22;;;;;;;38.95;21.20;;;;;;;;;;5033050;28;20112;-86
2020/12/04 01:32:48;;;;;;;35.50;20.52;;;;;;;;;;5015607;28;20060;-85
2020/12/04 01:35:14;;;;;;;35.78;20.98;;;;;;;;;;5033020;28;20135;-86
2020/12/04 01:37:40;;;;;;;39.92;21.90;;;;;;;;;;5014034;28;20053;-85
2020/12/04 01:40:06;;;;;;;36.70;21.20;;;;;;;;;;5020312;28;20071;-86
2020/12/04 01:42:32;;;;;;;40.13;21.45;;;;;;;;;;5015637;28;20046;-85
2020/12/04 01:44:58;;;;;;;41.25;21.83;;;;;;;;;;4996308;28;20517;-84
2020/12/04 01:47:25;;;;;;;38.80;21.58;;;;;;;;;;4996875;28;20046;-85
2020/12/04 01:49:51;;;;;;;39.90;22.00;;;;;;;;;;5032834;28;20060;-85
2020/12/04 01:52:19;;;;;;;34.15;21.10;;;;;;;;;;5019683;28;20085;-86
2020/12/04 01:54:46;;;;;;;37.83;21.17;;;;;;;;;;5037927;28;20152;-84
2020/12/04 01:57:13;;;;;;;39.85;22.15;;;;;;;;;;5019320;28;20065;-85
2020/12/04 01:59:39;;;;;;;37.80;21.35;;;;;;;;;;5000047;28;20085;-85
2020/12/04 02:02:12;;;;;;;41.92;22.77;;;;;;;;;;5003380;28;20049;-85
2020/12/04 02:04:38;;;;;;;41.08;22.95;;;;;;;;;;5004794;28;20052;-85
2020/12/04 02:07:07;;;;;;;35.22;21.23;;;;;;;;;;5020052;28;20060;-86
2020/12/04 02:09:37;;;;;;;35.72;20.15;;;;;;;;;;5020358;28;20053;-85
2020/12/04 02:12:04;;;;;;;38.22;21.75;;;;;;;;;;5037988;28;20056;-85
2020/12/04 02:14:31;;;;;;;40.78;19.77;;;;;;;;;;5037455;28;20056;-86
2020/12/04 02:17:00;;;;;;;40.75;20.42;;;;;;;;;;5037529;28;20060;-87
2020/12/04 02:19:26;;;;;;;36.83;20.50;;;;;;;;;;5019586;28;20115;-86
2020/12/04 02:21:54;;;;;;;34.42;19.83;;;;;;;;;;5019718;28;20084;-86
2020/12/04 02:24:25;;;;;;;38.25;21.20;;;;;;;;;;5003535;28;20085;-86
2020/12/04 02:26:51;;;;;;;38.45;20.23;;;;;;;;;;5036712;28;20045;-86
2020/12/04 02:29:17;;;;;;;33.97;20.50;;;;;;;;;;5037520;28;20053;-86
2020/12/04 02:31:43;;;;;;;42.72;21.83;;;;;;;;;;5018650;28;20054;-86
2020/12/04 02:34:09;;;;;;;39.03;21.70;;;;;;;;;;5036359;28;20052;-85
2020/12/04 02:36:35;;;;;;;40.85;20.52;;;;;;;;;;5019464;28;20081;-86
2020/12/04 02:39:02;;;;;;;31.92;20.02;;;;;;;;;;5036756;28;20474;-88
2020/12/04 02:41:28;;;;;;;34.97;20.85;;;;;;;;;;5041120;28;20140;-86
2020/12/04 02:43:54;;;;;;;37.65;20.15;;;;;;;;;;5037148;28;20041;-86
2020/12/04 02:46:20;;;;;;;40.20;20.88;;;;;;;;;;5018900;28;20056;-86
2020/12/04 02:48:46;;;;;;;33.85;19.70;;;;;;;;;;5019170;28;20061;-86
2020/12/04 02:51:12;;;;;;;36.20;20.83;;;;;;;;;;5037129;28;20476;-87
2020/12/04 02:53:38;;;;;;;36.20;19.88;;;;;;;;;;5002806;28;20195;-87
2020/12/04 02:56:05;;;;;;;37.03;19.92;;;;;;;;;;5036915;28;20584;-87
2020/12/04 02:58:31;;;;;;;38.30;20.25;;;;;;;;;;5036213;28;20060;-87
2020/12/04 03:00:57;;;;;;;36.13;20.50;;;;;;;;;;5018731;28;20409;-86
2020/12/04 03:03:23;;;;;;;32.63;19.50;;;;;;;;;;5035765;28;20045;-87
2020/12/04 03:05:49;;;;;;;36.83;20.60;;;;;;;;;;5036173;28;20503;-86
2020/12/04 03:08:25;;;;;;;37.50;21.25;;;;;;;;;;5018748;28;20053;-86
2020/12/04 03:10:51;;;;;;;37.75;20.02;;;;;;;;;;5018879;28;20132;-86
2020/12/04 03:13:18;;;;;;;34.10;20.67;;;;;;;;;;5035901;28;20124;-87
2020/12/04 03:15:44;;;;;;;37.80;21.02;;;;;;;;;;5036602;28;20049;-86
2020/12/04 03:18:10;;;;;;;34.92;19.35;;;;;;;;;;5036059;28;20468;-86
2020/12/04 03:20:36;;;;;;;34.00;20.38;;;;;;;;;;5036078;28;20563;-86
2020/12/04 03:23:02;;;;;;;37.95;20.30;;;;;;;;;;5018801;28;20045;-86
2020/12/04 03:25:28;;;;;;;36.13;21.35;;;;;;;;;;5019064;28;20056;-86
2020/12/04 03:27:54;;;;;;;36.72;21.00;;;;;;;;;;5018169;28;20413;-86
2020/12/04 03:30:21;;;;;;;40.58;21.33;;;;;;;;;;5017901;28;20057;-86
2020/12/04 03:32:47;;;;;;;39.15;21.35;;;;;;;;;;5017811;28;20054;-85
2020/12/04 03:35:13;;;;;;;35.47;20.45;;;;;;;;;;5017865;28;20053;-86
2020/12/04 03:37:39;;;;;;;38.83;21.85;;;;;;;;;;5035909;28;20053;-86
2020/12/04 03:40:05;;;;;;;33.90;18.80;;;;;;;;;;5017918;28;20045;-86
2020/12/04 03:42:31;;;;;;;37.25;19.90;;;;;;;;;;5017836;28;20054;-86
2020/12/04 03:44:57;;;;;;;39.78;20.80;;;;;;;;;;5017942;28;20107;-86
2020/12/04 03:47:24;;;;;;;35.15;20.15;;;;;;;;;;5002125;28;20049;-86
2020/12/04 03:49:50;;;;;;;38.83;21.02;;;;;;;;;;5001627;28;20057;-87
2020/12/04 03:52:20;;;;;;;35.85;20.67;;;;;;;;;;5017353;28;20858;-86
2020/12/04 03:54:46;;;;;;;35.25;19.83;;;;;;;;;;4998246;28;20058;-86
2020/12/04 03:57:12;;;;;;;35.67;20.58;;;;;;;;;;4998292;28;20111;-86
2020/12/04 03:59:38;;;;;;;40.13;23.13;;;;;;;;;;4998333;28;20069;-86
2020/12/04 04:02:04;;;;;;;37.33;20.60;;;;;;;;;;5001345;28;20087;-86
2020/12/04 04:04:31;;;;;;;39.47;21.75;;;;;;;;;;5017506;28;20041;-86
2020/12/04 04:06:57;;;;;;;38.63;21.50;;;;;;;;;;5017484;28;20049;-86
2020/12/04 04:09:23;;;;;;;38.70;21.77;;;;;;;;;;5017408;28;20064;-87
2020/12/04 04:11:49;;;;;;;38.38;21.30;;;;;;;;;;5035453;28;20050;-86
2020/12/04 04:14:14;;;;;;;36.50;20.25;;;;;;;;;;5036668;28;20049;-86
2020/12/04 04:16:40;;;;;;;36.28;20.38;;;;;;;;;;5036278;28;20042;-86
2020/12/04 04:19:06;;;;;;;37.35;20.60;;;;;;;;;;5018001;28;20053;-86
2020/12/04 04:21:39;;;;;;;42.13;22.17;;;;;;;;;;5034917;28;20069;-86
2020/12/04 04:24:05;;;;;;;41.83;22.98;;;;;;;;;;5035529;28;20064;-86
2020/12/04 04:26:30;;;;;;;43.33;22.35;;;;;;;;;;5035562;28;20049;-86
2020/12/04 04:28:56;;;;;;;38.95;21.08;;;;;;;;;;5035791;28;20072;-88
2020/12/04 04:31:23;;;;;;;46.08;24.27;;;;;;;;;;5017573;28;20103;-85
2020/12/04 04:33:49;;;;;;;40.10;21.27;;;;;;;;;;5001948;28;20048;-86
2020/12/04 04:36:15;;;;;;;37.08;21.95;;;;;;;;;;5018700;28;20049;-86
2020/12/04 04:38:42;;;;;;;39.53;21.42;;;;;;;;;;5018795;28;20072;-86
2020/12/04 04:41:08;;;;;;;38.30;20.60;;;;;;;;;;5035341;28;20049;-86
2020/12/04 04:43:34;;;;;;;33.30;19.27;;;;;;;;;;5017918;28;20077;-87
2020/12/04 04:46:05;;;;;;;38.42;21.90;;;;;;;;;;5034208;28;20104;-86
2020/12/04 04:48:32;;;;;;;35.47;20.45;;;;;;;;;;5017429;28;20057;-86
2020/12/04 04:50:58;;;;;;;42.95;22.90;;;;;;;;;;5016864;28;20053;-86
2020/12/04 04:53:25;;;;;;;37.47;21.13;;;;;;;;;;5033923;28;20045;-85
2020/12/04 04:55:54;;;;;;;42.72;22.02;;;;;;;;;;5013302;28;20053;-85
2020/12/04 04:58:20;;;;;;;35.90;21.20;;;;;;;;;;5014858;28;20569;-85
2020/12/04 05:00:46;;;;;;;42.22;21.88;;;;;;;;;;5017289;28;20041;-85
2020/12/04 05:03:12;;;;;;;36.35;21.10;;;;;;;;;;5033977;28;20119;-85
2020/12/04 05:05:43;;;;;;;44.30;22.83;;;;;;;;;;5014631;28;20053;-87
2020/12/04 05:08:10;;;;;;;37.25;19.40;;;;;;;;;;5015494;28;20665;-88
2020/12/04 05:10:36;;;;;;;34.38;19.70;;;;;;;;;;5014214;28;20421;-85
2020/12/04 05:13:03;;;;;;;40.80;21.10;;;;;;;;;;5030016;28;20037;-87
2020/12/04 05:15:30;;;;;;;37.55;22.33;;;;;;;;;;4999110;28;20374;-85
2020/12/04 05:18:06;;;;;;;41.60;22.30;;;;;;;;;;5015211;28;20041;-86
2020/12/04 05:20:33;;;;;;;40.78;20.58;;;;;;;;;;5014303;28;20057;-86
2020/12/04 05:23:01;;;;;;;39.33;22.65;;;;;;;;;;5031019;28;20038;-86
2020/12/04 05:25:27;;;;;;;42.17;23.30;;;;;;;;;;5016672;28;20041;-85
2020/12/04 05:27:53;;;;;;;38.88;21.30;;;;;;;;;;5045198;28;20072;-83
2020/12/04 05:30:26;;;;;;;38.63;19.90;;;;;;;;;;5046731;28;20111;-86
2020/12/04 05:32:59;;;;;;;40.30;23.30;;;;;;;;;;5036458;28;20045;-84
2020/12/04 05:35:25;;;;;;;41.22;20.50;;;;;;;;;;5003364;28;20042;-85
2020/12/04 05:38:07;;;;;;;40.58;21.95;;;;;;;;;;5040498;28;20075;-87
2020/12/04 05:40:33;;;;;;;38.15;21.08;;;;;;;;;;5020769;28;20053;-87
2020/12/04 05:43:00;;;;;;;38.72;20.98;;;;;;;;;;5022130;28;20067;-86
2020/12/04 05:45:26;;;;;;;40.00;21.17;;;;;;;;;;5026577;28;20081;-86
2020/12/04 05:47:53;;;;;;;37.80;21.77;;;;;;;;;;5033907;28;20048;-86
2020/12/04 05:50:19;;;;;;;36.85;21.98;;;;;;;;;;4981694;28;20127;-87
2020/12/04 05:52:48;;;;;;;36.45;21.02;;;;;;;;;;5000509;28;20073;-86
2020/12/04 05:55:15;;;;;;;41.55;20.92;;;;;;;;;;5018373;28;20056;-85
2020/12/04 05:57:46;;;;;;;37.45;21.60;;;;;;;;;;5034691;28;20042;-86
2020/12/04 06:00:14;;;;;;;42.55;24.23;;;;;;;;;;4998724;28;20103;-87
2020/12/04 06:02:41;;;;;;;41.33;22.83;;;;;;;;;;5032902;28;20041;-86
2020/12/04 06:05:09;;;;;;;44.05;22.52;;;;;;;;;;5015830;28;20057;-87
2020/12/04 06:07:35;;;;;;;40.42;22.17;;;;;;;;;;5033024;28;20053;-86
2020/12/04 06:10:01;;;;;;;40.28;24.52;;;;;;;;;;5034180;28;20133;-86
2020/12/04 06:12:27;;;;;;;34.97;22.25;;;;;;;;;;5032853;28;20053;-86
2020/12/04 06:14:53;;;;;;;37.72;21.55;;;;;;;;;;5016182;28;20392;-86
2020/12/04 06:17:19;;;;;;;50.90;26.92;;;;;;;;;;5031860;28;20084;-87
2020/12/04 06:19:46;;;;;;;46.22;24.67;;;;;;;;;;5015280;28;20042;-87
2020/12/04 06:22:14;;;;;;;43.53;24.45;;;;;;;;;;5031811;28;20053;-86
2020/12/04 06:25:07;;;;;;;37.67;22.02;;;;;;;;;;5032307;28;20060;-87
2020/12/04 06:27:44;;;;;;;40.65;21.27;;;;;;;;;;5035151;28;20060;-84
2020/12/04 06:30:12;;;;;;;40.60;20.88;;;;;;;;;;5036630;28;20080;-86
2020/12/04 06:32:41;;;;;;;37.10;21.48;;;;;;;;;;5036071;28;20046;-86
2020/12/04 06:35:09;;;;;;;43.92;23.25;;;;;;;;;;5035627;28;20192;-85
2020/12/04 06:37:37;;;;;;;38.88;22.55;;;;;;;;;;5021354;28;20164;-86
2020/12/04 06:40:26;;;;;;;40.90;24.27;;;;;;;;;;5037569;28;20057;-85
2020/12/04 06:42:53;;;;;;;42.97;22.83;;;;;;;;;;5018409;28;20054;-85
2020/12/04 06:45:21;;;;;;;45.83;23.70;;;;;;;;;;5020606;28;20064;-86
2020/12/04 06:48:10;;;;;;;45.10;22.98;;;;;;;;;;5038239;28;20055;-86
2020/12/04 06:50:41;;;;;;;46.50;24.77;;;;;;;;;;5034048;28;20041;-85
2020/12/04 06:53:08;;;;;;;40.00;22.25;;;;;;;;;;5039089;28;20569;-85
2020/12/04 06:55:34;;;;;;;40.50;22.67;;;;;;;;;;5037406;28;20053;-86
2020/12/04 06:58:00;;;;;;;43.33;22.50;;;;;;;;;;5029225;28;20041;-86
2020/12/04 07:00:26;;;;;;;44.47;24.58;;;;;;;;;;5024336;28;20080;-86
2020/12/04 07:02:52;;;;;;;48.13;23.63;;;;;;;;;;5016458;28;20504;-86
2020/12/04 07:05:22;;;;;;;44.10;22.40;;;;;;;;;;5018184;28;20072;-87
2020/12/04 07:07:49;;;;;;;40.42;22.15;;;;;;;;;;5018210;28;20057;-87
2020/12/04 07:10:16;;;;;;;43.78;22.15;;;;;;;;;;5017658;28;20049;-86
2020/12/04 07:12:42;;;;;;;43.90;25.15;;;;;;;;;;5035829;28;20132;-87
2020/12/04 07:15:08;;;;;;;40.72;22.50;;;;;;;;;;5035435;28;20054;-87
2020/12/04 07:17:34;;;;;;;42.38;21.42;;;;;;;;;;5034914;28;20052;-87
2020/12/04 07:20:01;;;;;;;41.55;21.25;;;;;;;;;;5035375;28;20474;-87
2020/12/04 07:22:27;;;;;;;39.33;21.25;;;;;;;;;;5035385;28;20053;-89
2020/12/04 07:24:56;;;;;;;41.05;22.80;;;;;;;;;;5016553;28;20553;-88
2020/12/04 07:27:26;;;;;;;49.78;27.67;;;;;;;;;;5016535;28;20167;-89
2020/12/04 07:29:52;;;;;;;41.40;22.10;;;;;;;;;;5000461;28;20535;-89
2020/12/04 07:32:20;;;;;;;40.42;22.33;;;;;;;;;;5016444;28;20045;-89
2020/12/04 07:34:46;;;;;;;42.70;23.15;;;;;;;;;;5034290;28;20057;-89
2020/12/04 07:37:12;;;;;;;41.45;22.83;;;;;;;;;;5000520;28;20049;-89
2020/12/04 07:39:39;;;;;;;43.25;23.77;;;;;;;;;;5033852;28;20045;-88
2020/12/04 07:42:08;;;;;;;42.42;23.75;;;;;;;;;;5016378;28;20060;-88
2020/12/04 07:44:37;;;;;;;46.08;24.38;;;;;;;;;;5033534;28;20085;-88
2020/12/04 07:47:05;;;;;;;41.40;22.98;;;;;;;;;;5033609;28;20061;-87
2020/12/04 07:49:31;;;;;;;42.47;21.55;;;;;;;;;;5015493;28;20075;-88
2020/12/04 07:52:15;;;;;;;43.88;23.90;;;;;;;;;;5034091;28;20049;-88
2020/12/04 07:54:41;;;;;;;37.33;21.25;;;;;;;;;;5033854;28;20049;-88
2020/12/04 07:57:08;;;;;;;41.97;23.17;;;;;;;;;;5034039;28;20191;-88
2020/12/04 07:59:36;;;;;;;42.33;23.02;;;;;;;;;;5033748;28;20061;-87
2020/12/04 08:02:03;;;;;;;49.88;24.40;;;;;;;;;;5016153;28;20696;-88
2020/12/04 08:04:29;;;;;;;47.65;23.98;;;;;;;;;;5016190;28;20059;-88
2020/12/04 08:07:05;;;;;;;42.63;22.73;;;;;;;;;;5033754;28;20045;-89
2020/12/04 08:09:34;;;;;;;47.20;24.05;;;;;;;;;;5016792;28;20041;-89
2020/12/04 08:12:00;;;;;;;44.35;25.02;;;;;;;;;;5033640;28;20410;-88
2020/12/04 08:14:29;;;;;;;43.72;21.95;;;;;;;;;;5034464;28;20075;-87
2020/12/04 08:16:56;;;;;;;42.25;23.23;;;;;;;;;;5034871;28;20049;-88
2020/12/04 08:19:27;;;;;;;46.60;24.55;;;;;;;;;;5016451;28;20054;-87
2020/12/04 08:21:56;;;;;;;45.97;22.98;;;;;;;;;;5033798;28;20057;-87
2020/12/04 08:24:24;;;;;;;45.33;24.88;;;;;;;;;;5033653;28;20050;-87
2020/12/04 08:27:01;;;;;;;42.58;23.38;;;;;;;;;;5000720;28;20041;-87
2020/12/04 08:29:28;;;;;;;43.97;23.05;;;;;;;;;;5015936;28;20497;-89
2020/12/04 08:32:08;;;;;;;44.20;24.88;;;;;;;;;;5015672;28;20088;-88
2020/12/04 08:34:35;;;;;;;42.58;23.77;;;;;;;;;;5015615;28;20053;-88
2020/12/04 08:37:03;;;;;;;42.75;24.17;;;;;;;;;;5033157;28;20041;-88
2020/12/04 08:39:37;;;;;;;39.25;22.17;;;;;;;;;;5015833;28;20049;-86
2020/12/04 08:42:20;;;;;;;40.85;25.02;;;;;;;;;;5034061;28;20053;-87
2020/12/04 08:44:59;;;;;;;43.40;23.25;;;;;;;;;;5033651;28;20424;-87
2020/12/04 08:47:30;;;;;;;43.92;22.80;;;;;;;;;;5033106;28;20640;-87
2020/12/04 08:49:57;;;;;;;41.85;24.35;;;;;;;;;;5033647;28;20053;-87
2020/12/04 08:52:40;;;;;;;46.30;23.40;;;;;;;;;;5033129;28;20489;-87
2020/12/04 08:55:08;;;;;;;40.85;23.15;;;;;;;;;;5017282;28;20129;-87
2020/12/04 08:57:34;;;;;;;56.83;29.50;;;;;;;;;;4998839;28;20045;-87
2020/12/04 09:00:01;;;;;;;70.68;33.15;;;;;;;;;;5015357;28;20044;-87
2020/12/04 09:02:27;;;;;;;46.38;25.60;;;;;;;;;;5033329;28;20061;-87
2020/12/04 09:04:54;;;;;;;40.17;24.27;;;;;;;;;;5033082;28;20057;-88
2020/12/04 09:07:20;;;;;;;42.58;23.42;;;;;;;;;;5015039;28;20709;-90
2020/12/04 09:09:46;;;;;;;43.20;23.95;;;;;;;;;;5015030;28;20041;-89
2020/12/04 09:12:12;;;;;;;46.85;24.50;;;;;;;;;;4997819;28;20060;-91
2020/12/04 09:14:39;;;;;;;53.35;27.20;;;;;;;;;;4994037;28;20054;-89
2020/12/04 09:17:06;;;;;;;51.10;28.05;;;;;;;;;;5013208;28;20065;-88
2020/12/04 09:19:32;;;;;;;53.95;27.80;;;;;;;;;;5031825;28;20050;-89
2020/12/04 09:21:58;;;;;;;49.88;25.08;;;;;;;;;;5014944;28;20065;-88
2020/12/04 09:24:25;;;;;;;46.03;25.27;;;;;;;;;;5014850;28;20056;-85
2020/12/04 09:26:51;;;;;;;44.65;25.05;;;;;;;;;;5030755;28;20059;-87
2020/12/04 09:29:17;;;;;;;43.92;23.88;;;;;;;;;;5030325;28;20049;-87
2020/12/04 09:31:43;;;;;;;43.53;24.85;;;;;;;;;;5016787;28;20053;-86
2020/12/04 09:34:10;;;;;;;45.80;24.98;;;;;;;;;;5017142;28;20046;-85
2020/12/04 09:36:35;;;;;;;42.70;23.27;;;;;;;;;;5033137;28;20049;-85
2020/12/04 09:39:02;;;;;;;42.00;23.58;;;;;;;;;;5034068;28;20859;-84
2020/12/04 09:41:28;;;;;;;47.50;24.38;;;;;;;;;;5015666;28;20052;-85
2020/12/04 09:43:53;;;;;;;44.13;24.65;;;;;;;;;;4996614;28;20050;-85
2020/12/04 09:46:20;;;;;;;42.03;22.75;;;;;;;;;;4997912;28;20045;-84
2020/12/04 09:48:46;;;;;;;45.45;23.90;;;;;;;;;;5014604;28;20081;-84
2020/12/04 09:51:12;;;;;;;44.92;24.40;;;;;;;;;;5005497;28;20053;-85
2020/12/04 09:53:38;;;;;;;46.17;25.05;;;;;;;;;;5034485;28;20050;-84
2020/12/04 09:56:04;;;;;;;47.80;25.13;;;;;;;;;;5034271;28;20053;-86
2020/12/04 09:58:30;;;;;;;44.45;23.98;;;;;;;;;;5017205;28;20053;-85
2020/12/04 10:00:56;;;;;;;45.05;25.38;;;;;;;;;;5000459;28;20532;-85
2020/12/04 10:03:22;;;;;;;49.08;26.35;;;;;;;;;;5016281;28;20672;-86
2020/12/04 10:05:48;;;;;;;43.60;25.13;;;;;;;;;;5000535;28;20061;-86
2020/12/04 10:08:15;;;;;;;47.42;24.55;;;;;;;;;;5016331;28;20049;-83
2020/12/04 10:10:41;;;;;;;50.58;26.25;;;;;;;;;;5016446;28;20056;-84
2020/12/04 10:13:09;;;;;;;47.95;26.10;;;;;;;;;;5020434;28;20132;-84
2020/12/04 10:15:36;;;;;;;47.70;25.90;;;;;;;;;;5037760;28;20117;-85
2020/12/04 10:18:02;;;;;;;49.72;26.55;;;;;;;;;;5003707;28;20139;-86
2020/12/04 10:20:28;;;;;;;42.22;24.30;;;;;;;;;;5019688;28;20478;-85
2020/12/04 10:22:54;;;;;;;44.92;25.00;;;;;;;;;;5019553;28;20052;-86
2020/12/04 10:25:20;;;;;;;48.90;27.33;;;;;;;;;;5036851;28;20057;-88
2020/12/04 10:27:46;;;;;;;49.17;28.45;;;;;;;;;;5037657;28;20045;-84
2020/12/04 10:30:12;;;;;;;49.17;27.65;;;;;;;;;;5019853;28;20053;-86
2020/12/04 10:32:38;;;;;;;66.72;38.03;;;;;;;;;;5019155;28;20417;-85
2020/12/04 10:35:04;;;;;;;49.40;28.60;;;;;;;;;;5038538;28;20103;-86
2020/12/04 10:37:30;;;;;;;47.05;24.38;;;;;;;;;;5020406;28;20045;-86
2020/12/04 10:39:56;;;;;;;42.35;24.80;;;;;;;;;;5019012;28;20092;-86
2020/12/04 10:42:23;;;;;;;46.58;25.67;;;;;;;;;;5021036;28;20057;-86
2020/12/04 10:44:49;;;;;;;40.20;23.52;;;;;;;;;;5037760;28;20053;-85
2020/12/04 10:47:17;;;;;;;37.78;23.63;;;;;;;;;;5019620;28;20053;-86
2020/12/04 10:49:43;;;;;;;44.55;23.95;;;;;;;;;;5020519;28;20050;-86
2020/12/04 10:52:10;;;;;;;45.50;24.98;;;;;;;;;;5036541;28;20045;-86
2020/12/04 10:54:36;;;;;;;43.95;24.05;;;;;;;;;;5002756;28;20069;-85
2020/12/04 10:57:02;;;;;;;45.45;24.05;;;;;;;;;;5003194;28;20053;-85
2020/12/04 10:59:29;;;;;;;40.00;23.13;;;;;;;;;;5018534;28;20041;-86
2020/12/04 11:01:57;;;;;;;41.33;25.25;;;;;;;;;;5035787;28;20708;-87
2020/12/04 11:07:08;;;;;;;53.72;29.25;;;;;;;;;;5021508;28;20056;-86
2020/12/04 11:09:34;;;;;;;48.38;26.77;;;;;;;;;;5019077;28;20052;-87
2020/12/04 11:12:01;;;;;;;43.45;24.60;;;;;;;;;;5017953;28;20053;-88
2020/12/04 11:14:27;;;;;;;43.85;25.27;;;;;;;;;;5018257;28;20493;-87
2020/12/04 11:16:54;;;;;;;47.13;26.42;;;;;;;;;;5043618;28;20076;-87
2020/12/04 11:19:23;;;;;;;41.85;23.80;;;;;;;;;;5008794;28;20183;-87
2020/12/04 11:21:49;;;;;;;43.08;25.17;;;;;;;;;;5035492;28;20135;-86
2020/12/04 11:24:15;;;;;;;42.67;23.63;;;;;;;;;;5018156;28;20421;-87
2020/12/04 11:26:41;;;;;;;45.05;25.08;;;;;;;;;;5017392;28;20048;-87
2020/12/04 11:29:08;;;;;;;39.50;23.13;;;;;;;;;;5018246;28;20113;-85
2020/12/04 11:31:34;;;;;;;40.40;23.10;;;;;;;;;;5035274;28;20054;-84
2020/12/04 11:34:01;;;;;;;40.40;22.98;;;;;;;;;;5033829;28;20053;-86
2020/12/04 11:36:27;;;;;;;45.53;25.40;;;;;;;;;;5035127;28;20416;-86
2020/12/04 11:38:53;;;;;;;42.42;23.45;;;;;;;;;;5017179;28;20493;-86
2020/12/04 11:41:19;;;;;;;44.30;24.98;;;;;;;;;;5001514;28;20096;-86
2020/12/04 11:43:45;;;;;;;43.20;24.50;;;;;;;;;;5017691;28;20061;-85
2020/12/04 11:46:11;;;;;;;41.35;22.95;;;;;;;;;;5035016;28;20053;-85
2020/12/04 11:48:37;;;;;;;38.22;22.50;;;;;;;;;;5017309;28;20053;-86
2020/12/04 11:51:04;;;;;;;38.38;22.42;;;;;;;;;;5017222;28;20061;-86
2020/12/04 11:53:30;;;;;;;42.03;23.60;;;;;;;;;;5034539;28;20056;-86
2020/12/04 11:55:56;;;;;;;42.65;23.70;;;;;;;;;;5017348;28;20053;-86
2020/12/04 11:58:22;;;;;;;40.63;23.20;;;;;;;;;;5017240;28;20046;-85
2020/12/04 12:00:48;;;;;;;36.28;22.40;;;;;;;;;;5034890;28;20054;-86
2020/12/04 12:03:14;;;;;;;41.28;23.40;;;;;;;;;;5034319;28;20049;-85
2020/12/04 12:05:40;;;;;;;41.25;23.23;;;;;;;;;;5035394;28;20101;-85
2020/12/04 12:08:07;;;;;;;43.95;24.15;;;;;;;;;;5034794;28;20088;-85
2020/12/04 12:10:33;;;;;;;42.60;23.50;;;;;;;;;;5002534;28;20053;-86
2020/12/04 12:12:59;;;;;;;40.15;22.67;;;;;;;;;;5017908;28;20049;-85
2020/12/04 12:15:25;;;;;;;41.90;23.33;;;;;;;;;;5017240;28;20053;-86
2020/12/04 12:17:51;;;;;;;42.88;23.60;;;;;;;;;;5035271;28;20053;-85
2020/12/04 12:20:18;;;;;;;41.42;23.48;;;;;;;;;;5016241;28;20058;-85
2020/12/04 12:22:44;;;;;;;44.53;24.20;;;;;;;;;;5017102;28;20045;-85
2020/12/04 12:25:10;;;;;;;41.70;24.17;;;;;;;;;;5016584;28;20050;-86
2020/12/04 12:27:36;;;;;;;40.75;23.27;;;;;;;;;;5034427;28;20057;-86
2020/12/04 12:30:02;;;;;;;42.40;23.88;;;;;;;;;;5031024;28;20050;-86
2020/12/04 12:32:28;;;;;;;39.00;23.33;;;;;;;;;;5009398;28;20045;-86
2020/12/04 12:35:02;;;;;;;37.60;22.70;;;;;;;;;;5014744;28;20104;-85
2020/12/04 12:37:30;;;;;;;39.53;22.15;;;;;;;;;;5017578;28;20055;-85
2020/12/04 12:39:56;;;;;;;39.45;22.90;;;;;;;;;;5030432;28;20045;-84
2020/12/04 12:42:23;;;;;;;38.78;22.23;;;;;;;;;;5010862;28;20053;-86
2020/12/04 12:44:49;;;;;;;36.65;22.25;;;;;;;;;;5033704;28;20093;-86
2020/12/04 12:47:15;;;;;;;42.53;23.83;;;;;;;;;;5015686;28;20057;-87
2020/12/04 12:49:44;;;;;;;41.33;23.23;;;;;;;;;;5032316;28;20064;-86
2020/12/04 12:52:10;;;;;;;38.10;23.15;;;;;;;;;;5014632;28;20052;-87
2020/12/04 12:54:43;;;;;;;36.97;22.20;;;;;;;;;;5018531;28;20041;-85
2020/12/04 12:57:10;;;;;;;41.30;23.02;;;;;;;;;;5036349;28;20565;-87
2020/12/04 12:59:37;;;;;;;39.78;23.75;;;;;;;;;;4998864;28;20053;-87
2020/12/04 13:02:03;;;;;;;41.67;22.35;;;;;;;;;;5021149;28;20068;-87
2020/12/04 13:04:29;;;;;;;44.30;23.92;;;;;;;;;;5020666;28;20133;-87
2020/12/04 13:06:56;;;;;;;43.13;22.90;;;;;;;;;;5039079;28;20173;-87
2020/12/04 13:09:22;;;;;;;37.33;21.52;;;;;;;;;;5015998;28;20052;-87
2020/12/04 13:11:49;;;;;;;40.22;22.35;;;;;;;;;;5032828;28;20064;-87
2020/12/04 13:14:15;;;;;;;38.90;22.80;;;;;;;;;;5015211;28;20517;-87
2020/12/04 13:16:49;;;;;;;39.55;22.10;;;;;;;;;;5016055;28;20129;-87
2020/12/04 13:19:19;;;;;;;40.13;22.67;;;;;;;;;;5015322;28;20100;-87
2020/12/04 13:21:55;;;;;;;42.05;25.73;;;;;;;;;;4999250;28;20049;-87
2020/12/04 13:24:22;;;;;;;;;;;;;;;;;;5014874;28;20556;-87
2020/12/04 13:26:48;;;;;;;34.53;18.83;;;;;;;;;;5031638;28;20384;-87
2020/12/04 13:29:14;;;;;;;43.72;24.42;;;;;;;;;;5032103;28;20133;-87
2020/12/04 13:31:40;;;;;;;43.75;24.20;;;;;;;;;;4998519;28;20539;-87
2020/12/04 13:34:07;;;;;;;41.55;24.92;;;;;;;;;;4997541;28;20256;-87
2020/12/04 13:36:33;;;;;;;43.65;23.85;;;;;;;;;;5032010;28;20046;-87
2020/12/04 13:38:59;;;;;;;41.22;24.17;;;;;;;;;;5014273;28;20053;-87
2020/12/04 13:41:25;;;;;;;44.47;25.45;;;;;;;;;;5014379;28;20561;-86
2020/12/04 13:43:52;;;;;;;41.45;22.95;;;;;;;;;;5032030;28;20072;-89
2020/12/04 13:46:18;;;;;;;40.08;23.23;;;;;;;;;;5013718;28;20425;-90
2020/12/04 13:48:44;;;;;;;43.08;26.02;;;;;;;;;;5031752;28;20056;-92
2020/12/04 13:51:12;;;;;;;42.70;24.63;;;;;;;;;;5014457;28;20049;-87
2020/12/04 13:53:39;;;;;;;40.20;24.67;;;;;;;;;;5014152;28;20053;-87
2020/12/04 13:56:05;;;;;;;40.95;24.17;;;;;;;;;;5014842;28;20467;-87
2020/12/04 13:58:31;;;;;;;46.10;25.48;;;;;;;;;;5031603;28;20056;-88
2020/12/04 14:00:57;;;;;;;44.92;23.45;;;;;;;;;;5013967;28;20057;-87
2020/12/04 14:03:25;;;;;;;92.30;61.17;;;;;;;;;;5013164;28;20067;-87
2020/12/04 14:05:52;;;;;;;42.03;25.70;;;;;;;;;;5014543;28;20050;-87
2020/12/04 14:08:19;;;;;;;41.90;24.92;;;;;;;;;;5031320;28;20053;-88
2020/12/04 14:10:45;;;;;;;43.45;25.50;;;;;;;;;;5015021;28;20071;-87
2020/12/04 14:13:12;;;;;;;40.55;24.65;;;;;;;;;;5031952;28;20045;-87
2020/12/04 14:15:38;;;;;;;70.13;36.80;;;;;;;;;;5035496;28;20053;-88
2020/12/04 14:18:04;;;;;;;52.53;28.70;;;;;;;;;;5039773;28;20064;-87
2020/12/04 14:20:30;;;;;;;80.22;39.15;;;;;;;;;;5044301;28;20047;-87